Overview Statistics Trail Chart Weather Telemetry Raw packets
 

This is the latest recevied weather packets stored in our database for station/object S56OA-13. If no packets are shown the sender has not sent any weather packets the latest 10 day(s).

<< 16 17 18 19 >>
Time Temp. Humidity Pressure Rain* Wind** Luminosity Snow
1787848542 24.44° C 42% 892.3 hPa - - - -
1787846741 25.56° C 42% 897.2 hPa - - - -
1787844939 27.22° C 42% 903.5 hPa - - - -
1787843138 28.33° C 42% 908.2 hPa - - - -
1787841337 28.33° C 42% 909 hPa - - - -
1787839536 30.56° C 42% 915.1 hPa - - - -
1787837735 28.33° C 42% 910.4 hPa - - - -
1787835933 28.33° C 43% 908.9 hPa - - - -
1787834132 32.22° C 42% 924.4 hPa - - - -
1787832331 32.78° C 42% 926 hPa - - - -
1787830524 32.78° C 41% 926 hPa - - - -
1787828722 31.11° C 42% 920.1 hPa - - - -
1787825119 32.22° C 41% 920.9 hPa - - - -
1787823318 31.11° C 41% 917.4 hPa - - - -
1787821517 31.67° C 41% 919.9 hPa - - - -
1787819715 30° C 41% 914.6 hPa - - - -
1787817915 28.33° C 42% 906.9 hPa - - - -
1787816103 25.56° C 42% 899.1 hPa - - - -
1787814301 25.56° C 41% 897.5 hPa - - - -
1787812500 23.89° C 41% 891.5 hPa - - - -
1787810699 22.78° C 40% 886.9 hPa - - - -
1787808898 21.11° C 41% 880.8 hPa - - - -
1787807097 19.44° C 41% 875.6 hPa - - - -
1787805295 18.89° C 40% 873.5 hPa - - - -

* Rain since midnight (hover to see other rain measurements)
** Current wind speed in m/s (hover to see current wind gust speed)